Archival Weather

Central Park

Central Park, New York (KNYC)

Report from: Thursday, September 21, 2023 1:51 PM EDT
Current time: Sunday, February 25, 2024 5:13 PM EST

Current weather – Weather history – Daily summaries
Weather forecast

Temperature21.1°C (70.0°F)
Dew point9.4°C (48.9°F)
Winds Calm
Visibility10 mi. (16.1 km)
Clouds Sky clear
Altimeter30.28 in.Hg (1025 mB)
Relative humidity47 %
Density altitude507 ft. (155 m)
Sea-level pressure102.4 kPa (1024 mB, 30.25 in.Hg)
Max temp last 6 hours21.7°C (71.1°F)
Min temp last 6 hours14.4°C (57.9°F)
Remarks Fully automated report
System requires maintenance
Automated weather observing station with precipitation discriminator
Flight conditions Visual Meteorological Conditions
Raw dataKNYC 211751Z AUTO 00000KT 10SM CLR 21/09 A3028 RMK AO2 SLP244 T02110094 10217 20144 $
An error has occurred. This application may no longer respond until reloaded. Reload 🗙